AFR76RH LIMC-LFPG
Flight info
| Callsign | AFR76RH |
|---|---|
| Flight time | 1h 1m |
| Altitude | 32000 |
| Route | AOSTA DCT ORSUD DCT MOLUS DCT UNKIR DCT GIVRI DCT TINIL |
| Aircraft | A321/M-SDE3FGHIRWY/LB1 |
Departure
| Time | 2026-05-09 05:48 |
|---|---|
| Airport | Milan Malpensa International Airport (LIMC) |
Arrival
| Time | 2026-05-09 06:50 |
|---|---|
| Airport | Charles de Gaulle International Airport (LFPG) |
| Time | Latitude | Longitude | Altitude | Speed | Heading |
|---|---|---|---|---|---|
| 2026-05-09 05:21 | 45.62536 | 8.71609 | 733 ft | 0 kts | 167° |
| 2026-05-09 05:32 | 45.62545 | 8.71606 | 733 ft | 2 kts | 167° |
| 2026-05-09 05:32 | 45.62560 | 8.71601 | 733 ft | 2 kts | 167° |
| 2026-05-09 05:32 | 45.62574 | 8.71596 | 733 ft | 2 kts | 167° |
| 2026-05-09 05:32 | 45.62584 | 8.71593 | 733 ft | 1 kts | 167° |
| 2026-05-09 05:33 | 45.62597 | 8.71586 | 734 ft | 2 kts | 140° |
| 2026-05-09 05:33 | 45.62607 | 8.71569 | 734 ft | 2 kts | 116° |
| 2026-05-09 05:33 | 45.62611 | 8.71549 | 734 ft | 2 kts | 92° |
| 2026-05-09 05:33 | 45.62611 | 8.71537 | 734 ft | 1 kts | 77° |
| 2026-05-09 05:34 | 45.62610 | 8.71530 | 734 ft | 0 kts | 78° |
| 2026-05-09 05:36 | 45.62611 | 8.71538 | 734 ft | 2 kts | 79° |
| 2026-05-09 05:36 | 45.62616 | 8.71576 | 734 ft | 6 kts | 80° |
| 2026-05-09 05:36 | 45.62626 | 8.71659 | 734 ft | 10 kts | 79° |
| 2026-05-09 05:37 | 45.62643 | 8.71781 | 734 ft | 14 kts | 79° |
| 2026-05-09 05:37 | 45.62662 | 8.71925 | 733 ft | 15 kts | 79° |
| 2026-05-09 05:37 | 45.62681 | 8.72066 | 733 ft | 12 kts | 85° |
| 2026-05-09 05:37 | 45.62629 | 8.72151 | 731 ft | 13 kts | 168° |
| 2026-05-09 05:38 | 45.62519 | 8.72180 | 729 ft | 18 kts | 169° |
| 2026-05-09 05:38 | 45.62380 | 8.72219 | 727 ft | 21 kts | 169° |
| 2026-05-09 05:38 | 45.62229 | 8.72260 | 723 ft | 22 kts | 169° |
| 2026-05-09 05:38 | 45.62072 | 8.72304 | 720 ft | 23 kts | 169° |
| 2026-05-09 05:39 | 45.61914 | 8.72347 | 716 ft | 23 kts | 169° |
| 2026-05-09 05:39 | 45.61750 | 8.72393 | 712 ft | 24 kts | 169° |
| 2026-05-09 05:39 | 45.61585 | 8.72439 | 708 ft | 19 kts | 169° |
| 2026-05-09 05:39 | 45.61472 | 8.72471 | 706 ft | 14 kts | 169° |
| 2026-05-09 05:40 | 45.61400 | 8.72405 | 704 ft | 14 kts | 261° |
| 2026-05-09 05:40 | 45.61382 | 8.72262 | 705 ft | 14 kts | 259° |
| 2026-05-09 05:40 | 45.61308 | 8.72206 | 703 ft | 14 kts | 169° |
| 2026-05-09 05:40 | 45.61198 | 8.72237 | 700 ft | 17 kts | 169° |
| 2026-05-09 05:41 | 45.61070 | 8.72272 | 698 ft | 19 kts | 169° |
| 2026-05-09 05:41 | 45.60933 | 8.72310 | 696 ft | 20 kts | 169° |
| 2026-05-09 05:41 | 45.60794 | 8.72348 | 694 ft | 20 kts | 169° |
| 2026-05-09 05:41 | 45.60687 | 8.72384 | 692 ft | 14 kts | 153° |
| 2026-05-09 05:42 | 45.60637 | 8.72509 | 691 ft | 16 kts | 97° |
| 2026-05-09 05:42 | 45.60623 | 8.72700 | 690 ft | 21 kts | 96° |
| 2026-05-09 05:42 | 45.60608 | 8.72913 | 689 ft | 21 kts | 96° |
| 2026-05-09 05:42 | 45.60594 | 8.73110 | 689 ft | 15 kts | 96° |
| 2026-05-09 05:43 | 45.60616 | 8.73256 | 688 ft | 15 kts | 46° |
| 2026-05-09 05:43 | 45.60716 | 8.73326 | 689 ft | 18 kts | 22° |
| 2026-05-09 05:43 | 45.60833 | 8.73394 | 690 ft | 17 kts | 22° |
| 2026-05-09 05:43 | 45.60939 | 8.73406 | 691 ft | 15 kts | 351° |
| 2026-05-09 05:44 | 45.61054 | 8.73375 | 693 ft | 17 kts | 349° |
| 2026-05-09 05:44 | 45.61177 | 8.73341 | 694 ft | 18 kts | 349° |
| 2026-05-09 05:44 | 45.61298 | 8.73307 | 696 ft | 16 kts | 349° |
| 2026-05-09 05:44 | 45.61408 | 8.73277 | 698 ft | 15 kts | 349° |
| 2026-05-09 05:45 | 45.61507 | 8.73248 | 700 ft | 13 kts | 349° |
| 2026-05-09 05:45 | 45.61586 | 8.73227 | 702 ft | 10 kts | 358° |
| 2026-05-09 05:45 | 45.61621 | 8.73301 | 702 ft | 9 kts | 79° |
| 2026-05-09 05:45 | 45.61634 | 8.73399 | 701 ft | 10 kts | 80° |
| 2026-05-09 05:46 | 45.61611 | 8.73497 | 701 ft | 9 kts | 122° |
| 2026-05-09 05:46 | 45.61586 | 8.73591 | 700 ft | 10 kts | 91° |
| 2026-05-09 05:46 | 45.61597 | 8.73701 | 700 ft | 11 kts | 78° |
| 2026-05-09 05:46 | 45.61627 | 8.73743 | 700 ft | 5 kts | 348° |
| 2026-05-09 05:47 | 45.61641 | 8.73739 | 701 ft | 0 kts | 348° |
| 2026-05-09 05:47 | 45.61653 | 8.73735 | 701 ft | 11 kts | 348° |
| 2026-05-09 05:47 | 45.61988 | 8.73644 | 708 ft | 84 kts | 349° |
| 2026-05-09 05:47 | 45.62776 | 8.73426 | 726 ft | 145 kts | 348° |
| 2026-05-09 05:48 | 45.63896 | 8.73122 | 980 ft | 174 kts | 349° |
| 2026-05-09 05:48 | 45.65091 | 8.72865 | 1568 ft | 178 kts | 356° |
| 2026-05-09 05:48 | 45.66328 | 8.72822 | 2257 ft | 180 kts | 359° |
| 2026-05-09 05:48 | 45.67572 | 8.72771 | 2765 ft | 183 kts | 358° |
| 2026-05-09 05:49 | 45.68892 | 8.72710 | 3054 ft | 197 kts | 358° |
| 2026-05-09 05:49 | 45.70326 | 8.72632 | 3346 ft | 212 kts | 358° |
| 2026-05-09 05:49 | 45.71827 | 8.72326 | 3572 ft | 232 kts | 338° |
| 2026-05-09 05:49 | 45.73094 | 8.70869 | 4028 ft | 241 kts | 301° |
| 2026-05-09 05:50 | 45.73531 | 8.68610 | 4761 ft | 239 kts | 268° |
| 2026-05-09 05:50 | 45.73082 | 8.66322 | 5238 ft | 251 kts | 241° |
| 2026-05-09 05:50 | 45.72139 | 8.64144 | 5627 ft | 266 kts | 238° |
| 2026-05-09 05:50 | 45.71117 | 8.61896 | 6237 ft | 273 kts | 238° |
| 2026-05-09 05:51 | 45.70076 | 8.59602 | 6978 ft | 275 kts | 238° |
| 2026-05-09 05:51 | 45.69048 | 8.57326 | 7691 ft | 277 kts | 238° |
| 2026-05-09 05:51 | 45.68008 | 8.55011 | 8405 ft | 280 kts | 238° |
| 2026-05-09 05:51 | 45.66964 | 8.52683 | 9117 ft | 282 kts | 238° |
| 2026-05-09 05:52 | 45.65897 | 8.50301 | 9826 ft | 285 kts | 238° |
| 2026-05-09 05:52 | 45.64833 | 8.47924 | 10491 ft | 288 kts | 238° |
| 2026-05-09 05:52 | 45.63728 | 8.45459 | 10849 ft | 303 kts | 238° |
| 2026-05-09 05:52 | 45.62556 | 8.42845 | 11141 ft | 320 kts | 238° |
| 2026-05-09 05:53 | 45.61343 | 8.40145 | 11418 ft | 335 kts | 238° |
| 2026-05-09 05:53 | 45.60051 | 8.37271 | 11707 ft | 349 kts | 238° |
| 2026-05-09 05:53 | 45.58784 | 8.34269 | 12203 ft | 355 kts | 245° |
| 2026-05-09 05:53 | 45.58154 | 8.30878 | 12798 ft | 356 kts | 266° |
| 2026-05-09 05:54 | 45.58255 | 8.28305 | 13256 ft | 356 kts | 282° |
| 2026-05-09 05:54 | 45.58859 | 8.25306 | 13821 ft | 357 kts | 288° |
| 2026-05-09 05:54 | 45.59657 | 8.21982 | 14403 ft | 359 kts | 289° |
| 2026-05-09 05:54 | 45.60475 | 8.18595 | 14973 ft | 362 kts | 289° |
| 2026-05-09 05:55 | 45.61286 | 8.15192 | 15544 ft | 364 kts | 289° |
| 2026-05-09 05:55 | 45.62100 | 8.11725 | 16107 ft | 366 kts | 289° |
| 2026-05-09 05:55 | 45.62913 | 8.08236 | 16655 ft | 368 kts | 289° |
| 2026-05-09 05:55 | 45.63715 | 8.04769 | 17180 ft | 370 kts | 289° |
| 2026-05-09 05:56 | 45.64516 | 8.01296 | 17691 ft | 372 kts | 289° |
| 2026-05-09 05:56 | 45.65331 | 7.97750 | 18198 ft | 374 kts | 289° |
| 2026-05-09 05:56 | 45.66144 | 7.94210 | 18687 ft | 377 kts | 289° |
| 2026-05-09 05:56 | 45.66957 | 7.90670 | 19164 ft | 378 kts | 289° |
| 2026-05-09 05:57 | 45.67786 | 7.87056 | 19637 ft | 380 kts | 289° |
| 2026-05-09 05:57 | 45.68604 | 7.83485 | 20099 ft | 382 kts | 289° |
| 2026-05-09 05:57 | 45.69427 | 7.79883 | 20557 ft | 384 kts | 289° |
| 2026-05-09 05:57 | 45.70264 | 7.76215 | 21009 ft | 386 kts | 289° |
| 2026-05-09 05:58 | 45.71088 | 7.72595 | 21442 ft | 387 kts | 289° |
| 2026-05-09 05:58 | 45.71925 | 7.68911 | 21876 ft | 389 kts | 289° |
| 2026-05-09 05:58 | 45.72758 | 7.65232 | 22299 ft | 391 kts | 289° |
| 2026-05-09 05:58 | 45.73594 | 7.61540 | 22703 ft | 393 kts | 289° |
| 2026-05-09 05:59 | 45.74439 | 7.57800 | 23100 ft | 394 kts | 289° |
| 2026-05-09 05:59 | 45.75277 | 7.54081 | 23487 ft | 396 kts | 289° |
| 2026-05-09 05:59 | 45.76129 | 7.50289 | 23813 ft | 400 kts | 289° |
| 2026-05-09 05:59 | 45.76979 | 7.46508 | 24041 ft | 405 kts | 289° |
| 2026-05-09 06:00 | 45.77837 | 7.42679 | 24362 ft | 407 kts | 289° |
| 2026-05-09 06:00 | 45.78782 | 7.38839 | 24710 ft | 408 kts | 295° |
| 2026-05-09 06:00 | 45.80184 | 7.35341 | 25035 ft | 410 kts | 306° |
| 2026-05-09 06:00 | 45.82104 | 7.32269 | 25369 ft | 413 kts | 316° |
| 2026-05-09 06:01 | 45.84366 | 7.29741 | 25706 ft | 416 kts | 322° |
| 2026-05-09 06:01 | 45.86733 | 7.27327 | 26033 ft | 418 kts | 323° |
| 2026-05-09 06:01 | 45.89082 | 7.24963 | 26332 ft | 420 kts | 323° |
| 2026-05-09 06:01 | 45.91474 | 7.22548 | 26641 ft | 421 kts | 322° |
| 2026-05-09 06:02 | 45.93870 | 7.20114 | 26943 ft | 422 kts | 322° |
| 2026-05-09 06:02 | 45.96206 | 7.17575 | 27315 ft | 421 kts | 319° |
| 2026-05-09 06:02 | 45.98431 | 7.14923 | 27741 ft | 419 kts | 317° |
| 2026-05-09 06:02 | 46.00645 | 7.12215 | 28157 ft | 417 kts | 317° |
| 2026-05-09 06:03 | 46.02853 | 7.09498 | 28545 ft | 416 kts | 317° |
| 2026-05-09 06:03 | 46.05040 | 7.06802 | 28926 ft | 415 kts | 317° |
| 2026-05-09 06:03 | 46.07213 | 7.04123 | 29301 ft | 414 kts | 317° |
| 2026-05-09 06:03 | 46.09395 | 7.01431 | 29665 ft | 413 kts | 317° |
| 2026-05-09 06:04 | 46.11576 | 6.98738 | 30024 ft | 413 kts | 316° |
| 2026-05-09 06:04 | 46.13768 | 6.96029 | 30380 ft | 412 kts | 316° |
| 2026-05-09 06:04 | 46.15937 | 6.93344 | 30687 ft | 412 kts | 316° |
| 2026-05-09 06:04 | 46.18109 | 6.90654 | 30956 ft | 413 kts | 316° |
| 2026-05-09 06:05 | 46.20264 | 6.87979 | 31216 ft | 414 kts | 316° |
| 2026-05-09 06:05 | 46.22461 | 6.85253 | 31480 ft | 415 kts | 316° |
| 2026-05-09 06:05 | 46.24451 | 6.82780 | 31717 ft | 416 kts | 316° |
| 2026-05-09 06:05 | 46.26586 | 6.80126 | 31966 ft | 417 kts | 316° |
| 2026-05-09 06:06 | 46.28791 | 6.77380 | 32121 ft | 418 kts | 316° |
| 2026-05-09 06:06 | 46.30985 | 6.74647 | 32125 ft | 418 kts | 316° |
| 2026-05-09 06:06 | 46.35391 | 6.69148 | 32123 ft | 418 kts | 316° |
| 2026-05-09 06:07 | 46.39764 | 6.63678 | 32116 ft | 418 kts | 316° |
| 2026-05-09 06:07 | 46.44139 | 6.58194 | 32110 ft | 418 kts | 316° |
| 2026-05-09 06:08 | 46.48533 | 6.52674 | 32108 ft | 418 kts | 316° |
| 2026-05-09 06:08 | 46.52913 | 6.47158 | 32107 ft | 418 kts | 316° |
| 2026-05-09 06:09 | 46.57286 | 6.41640 | 32107 ft | 418 kts | 316° |
| 2026-05-09 06:09 | 46.61659 | 6.36111 | 32107 ft | 418 kts | 316° |
| 2026-05-09 06:10 | 46.66036 | 6.30562 | 32110 ft | 418 kts | 316° |
| 2026-05-09 06:10 | 46.70419 | 6.24994 | 32110 ft | 418 kts | 316° |
| 2026-05-09 06:11 | 46.74810 | 6.19365 | 32074 ft | 429 kts | 319° |
| 2026-05-09 06:11 | 46.79378 | 6.13558 | 32038 ft | 445 kts | 319° |
| 2026-05-09 06:12 | 46.84094 | 6.07546 | 32016 ft | 452 kts | 319° |
| 2026-05-09 06:12 | 46.88786 | 6.01536 | 32008 ft | 453 kts | 319° |
| 2026-05-09 06:13 | 46.93506 | 5.95470 | 32006 ft | 453 kts | 319° |
| 2026-05-09 06:13 | 46.98248 | 5.89360 | 32005 ft | 453 kts | 319° |
| 2026-05-09 06:14 | 47.02967 | 5.83265 | 32005 ft | 453 kts | 319° |
| 2026-05-09 06:14 | 47.07668 | 5.77178 | 32005 ft | 453 kts | 319° |
| 2026-05-09 06:15 | 47.12372 | 5.71071 | 32005 ft | 453 kts | 319° |
| 2026-05-09 06:15 | 47.17068 | 5.64961 | 32005 ft | 453 kts | 319° |
| 2026-05-09 06:16 | 47.21783 | 5.58810 | 32005 ft | 453 kts | 319° |
| 2026-05-09 06:16 | 47.26471 | 5.52680 | 32005 ft | 453 kts | 319° |
| 2026-05-09 06:17 | 47.31163 | 5.46528 | 32005 ft | 453 kts | 319° |
| 2026-05-09 06:17 | 47.35853 | 5.40365 | 32005 ft | 453 kts | 319° |
| 2026-05-09 06:18 | 47.40544 | 5.34185 | 32005 ft | 453 kts | 318° |
| 2026-05-09 06:18 | 47.45215 | 5.28015 | 32005 ft | 453 kts | 318° |
| 2026-05-09 06:19 | 47.49898 | 5.21814 | 32005 ft | 453 kts | 318° |
| 2026-05-09 06:19 | 47.54582 | 5.15595 | 32005 ft | 453 kts | 318° |
| 2026-05-09 06:20 | 47.59238 | 5.09404 | 31934 ft | 454 kts | 319° |
| 2026-05-09 06:20 | 47.61623 | 5.06360 | 31522 ft | 452 kts | 320° |
| 2026-05-09 06:20 | 47.64027 | 5.03366 | 30937 ft | 450 kts | 320° |
| 2026-05-09 06:21 | 47.66403 | 5.00417 | 30260 ft | 450 kts | 320° |
| 2026-05-09 06:21 | 47.68813 | 4.97410 | 29524 ft | 450 kts | 320° |
| 2026-05-09 06:21 | 47.71160 | 4.94466 | 28782 ft | 451 kts | 320° |
| 2026-05-09 06:21 | 47.73542 | 4.91469 | 28007 ft | 452 kts | 320° |
| 2026-05-09 06:22 | 47.75918 | 4.88466 | 27629 ft | 447 kts | 320° |
| 2026-05-09 06:22 | 47.78288 | 4.85462 | 27609 ft | 449 kts | 320° |
| 2026-05-09 06:22 | 47.80668 | 4.82441 | 27577 ft | 449 kts | 320° |
| 2026-05-09 06:22 | 47.83026 | 4.79444 | 27525 ft | 450 kts | 320° |
| 2026-05-09 06:23 | 47.85400 | 4.76425 | 27436 ft | 450 kts | 320° |
| 2026-05-09 06:23 | 47.87772 | 4.73404 | 27291 ft | 450 kts | 320° |
| 2026-05-09 06:23 | 47.90148 | 4.70375 | 27061 ft | 450 kts | 320° |
| 2026-05-09 06:23 | 47.92512 | 4.67356 | 26812 ft | 451 kts | 320° |
| 2026-05-09 06:24 | 47.94900 | 4.64304 | 26561 ft | 451 kts | 320° |
| 2026-05-09 06:24 | 47.97277 | 4.61261 | 26311 ft | 452 kts | 320° |
| 2026-05-09 06:24 | 47.99625 | 4.58253 | 26062 ft | 450 kts | 320° |
| 2026-05-09 06:24 | 48.02004 | 4.55201 | 25810 ft | 448 kts | 320° |
| 2026-05-09 06:25 | 48.04368 | 4.52164 | 25559 ft | 447 kts | 320° |
| 2026-05-09 06:25 | 48.06703 | 4.49160 | 25309 ft | 445 kts | 320° |
| 2026-05-09 06:25 | 48.09036 | 4.46155 | 25059 ft | 443 kts | 320° |
| 2026-05-09 06:25 | 48.11343 | 4.43180 | 24810 ft | 441 kts | 320° |
| 2026-05-09 06:26 | 48.13686 | 4.40156 | 24557 ft | 440 kts | 320° |
| 2026-05-09 06:26 | 48.15980 | 4.37192 | 24269 ft | 438 kts | 320° |
| 2026-05-09 06:26 | 48.18254 | 4.34248 | 23922 ft | 436 kts | 319° |
| 2026-05-09 06:26 | 48.20558 | 4.31261 | 23481 ft | 433 kts | 319° |
| 2026-05-09 06:27 | 48.22796 | 4.28357 | 22980 ft | 429 kts | 319° |
| 2026-05-09 06:27 | 48.24987 | 4.25379 | 22450 ft | 425 kts | 316° |
| 2026-05-09 06:27 | 48.27060 | 4.22207 | 21910 ft | 421 kts | 312° |
| 2026-05-09 06:27 | 48.28963 | 4.18930 | 21377 ft | 417 kts | 310° |
| 2026-05-09 06:28 | 48.30821 | 4.15562 | 20830 ft | 413 kts | 309° |
| 2026-05-09 06:28 | 48.32625 | 4.12254 | 20296 ft | 409 kts | 309° |
| 2026-05-09 06:28 | 48.34394 | 4.09013 | 19965 ft | 399 kts | 309° |
| 2026-05-09 06:28 | 48.36133 | 4.05831 | 19901 ft | 397 kts | 309° |
| 2026-05-09 06:29 | 48.37897 | 4.02604 | 19917 ft | 399 kts | 309° |
| 2026-05-09 06:29 | 48.39667 | 3.99364 | 19924 ft | 399 kts | 309° |
| 2026-05-09 06:29 | 48.41429 | 3.96136 | 19852 ft | 400 kts | 309° |
| 2026-05-09 06:29 | 48.43178 | 3.92926 | 19262 ft | 400 kts | 309° |
| 2026-05-09 06:30 | 48.44936 | 3.89696 | 18686 ft | 397 kts | 309° |
| 2026-05-09 06:30 | 48.46665 | 3.86517 | 18151 ft | 394 kts | 309° |
| 2026-05-09 06:30 | 48.48378 | 3.83362 | 17630 ft | 390 kts | 309° |
| 2026-05-09 06:30 | 48.50097 | 3.80192 | 17110 ft | 386 kts | 309° |
| 2026-05-09 06:31 | 48.51780 | 3.77083 | 16600 ft | 383 kts | 309° |
| 2026-05-09 06:31 | 48.53433 | 3.73965 | 16093 ft | 380 kts | 307° |
| 2026-05-09 06:31 | 48.54941 | 3.70738 | 15801 ft | 373 kts | 304° |
| 2026-05-09 06:31 | 48.56352 | 3.67491 | 15820 ft | 375 kts | 303° |
| 2026-05-09 06:32 | 48.57772 | 3.64177 | 15825 ft | 376 kts | 303° |
| 2026-05-09 06:32 | 48.59201 | 3.60841 | 15714 ft | 377 kts | 303° |
| 2026-05-09 06:32 | 48.60611 | 3.57550 | 15179 ft | 376 kts | 303° |
| 2026-05-09 06:33 | 48.63424 | 3.50981 | 14857 ft | 370 kts | 303° |
| 2026-05-09 06:33 | 48.64807 | 3.47748 | 14882 ft | 371 kts | 303° |
| 2026-05-09 06:33 | 48.66206 | 3.44475 | 14908 ft | 371 kts | 303° |
| 2026-05-09 06:34 | 48.68993 | 3.37939 | 14959 ft | 371 kts | 303° |
| 2026-05-09 06:34 | 48.70396 | 3.34643 | 14982 ft | 371 kts | 302° |
| 2026-05-09 06:34 | 48.71789 | 3.31368 | 14994 ft | 371 kts | 302° |
| 2026-05-09 06:34 | 48.73187 | 3.28076 | 14999 ft | 371 kts | 302° |
| 2026-05-09 06:35 | 48.74587 | 3.24775 | 15001 ft | 371 kts | 302° |
| 2026-05-09 06:35 | 48.75986 | 3.21475 | 15002 ft | 371 kts | 302° |
| 2026-05-09 06:35 | 48.77369 | 3.18207 | 15003 ft | 371 kts | 302° |
| 2026-05-09 06:35 | 48.78772 | 3.14886 | 15003 ft | 371 kts | 302° |
| 2026-05-09 06:36 | 48.80149 | 3.11622 | 15003 ft | 371 kts | 302° |
| 2026-05-09 06:36 | 48.81538 | 3.08326 | 15003 ft | 371 kts | 302° |
| 2026-05-09 06:36 | 48.82939 | 3.05009 | 15002 ft | 371 kts | 303° |
| 2026-05-09 06:36 | 48.84413 | 3.01824 | 15003 ft | 371 kts | 307° |
| 2026-05-09 06:37 | 48.86036 | 2.98777 | 15003 ft | 371 kts | 311° |
| 2026-05-09 06:37 | 48.87760 | 2.95866 | 15003 ft | 371 kts | 313° |
| 2026-05-09 06:37 | 48.89518 | 2.92965 | 15003 ft | 371 kts | 313° |
| 2026-05-09 06:37 | 48.91253 | 2.90104 | 15003 ft | 371 kts | 313° |
| 2026-05-09 06:38 | 48.92789 | 2.86949 | 14989 ft | 371 kts | 296° |
| 2026-05-09 06:38 | 48.93543 | 2.83232 | 14994 ft | 371 kts | 276° |
| 2026-05-09 06:38 | 48.93521 | 2.79313 | 15001 ft | 371 kts | 266° |
| 2026-05-09 06:38 | 48.93294 | 2.75398 | 14978 ft | 371 kts | 264° |
| 2026-05-09 06:39 | 48.93048 | 2.71485 | 14779 ft | 373 kts | 264° |
| 2026-05-09 06:39 | 48.92812 | 2.67569 | 14172 ft | 373 kts | 265° |
| 2026-05-09 06:39 | 48.92588 | 2.63645 | 13617 ft | 371 kts | 265° |
| 2026-05-09 06:39 | 48.92372 | 2.59752 | 13094 ft | 367 kts | 265° |
| 2026-05-09 06:40 | 48.92164 | 2.55932 | 12589 ft | 364 kts | 265° |
| 2026-05-09 06:40 | 48.91957 | 2.52148 | 12092 ft | 360 kts | 265° |
| 2026-05-09 06:40 | 48.91750 | 2.48380 | 11597 ft | 356 kts | 265° |
| 2026-05-09 06:40 | 48.91543 | 2.44629 | 11103 ft | 352 kts | 265° |
| 2026-05-09 06:41 | 48.91338 | 2.40955 | 10783 ft | 343 kts | 265° |
| 2026-05-09 06:41 | 48.91142 | 2.37459 | 10614 ft | 330 kts | 265° |
| 2026-05-09 06:41 | 48.90951 | 2.34046 | 10440 ft | 317 kts | 265° |
| 2026-05-09 06:41 | 48.90765 | 2.30738 | 10276 ft | 305 kts | 265° |
| 2026-05-09 06:42 | 48.90588 | 2.27590 | 10124 ft | 294 kts | 265° |
| 2026-05-09 06:42 | 48.90417 | 2.24566 | 9953 ft | 285 kts | 265° |
| 2026-05-09 06:42 | 48.90246 | 2.21588 | 9573 ft | 284 kts | 265° |
| 2026-05-09 06:42 | 48.90074 | 2.18601 | 9204 ft | 282 kts | 265° |
| 2026-05-09 06:43 | 48.89902 | 2.15621 | 8843 ft | 280 kts | 265° |
| 2026-05-09 06:43 | 48.89794 | 2.12698 | 8507 ft | 277 kts | 275° |
| 2026-05-09 06:43 | 48.90424 | 2.10026 | 8153 ft | 273 kts | 308° |
| 2026-05-09 06:43 | 48.91931 | 2.08348 | 7808 ft | 269 kts | 343° |
| 2026-05-09 06:44 | 48.93729 | 2.08271 | 7474 ft | 264 kts | 18° |
| 2026-05-09 06:44 | 48.95234 | 2.09789 | 7139 ft | 260 kts | 52° |
| 2026-05-09 06:44 | 48.96151 | 2.12116 | 6869 ft | 255 kts | 64° |
| 2026-05-09 06:44 | 48.96787 | 2.14581 | 6621 ft | 250 kts | 75° |
| 2026-05-09 06:45 | 48.97114 | 2.17148 | 6384 ft | 245 kts | 81° |
| 2026-05-09 06:45 | 48.97342 | 2.19689 | 6124 ft | 241 kts | 83° |
| 2026-05-09 06:45 | 48.97520 | 2.22234 | 5821 ft | 240 kts | 84° |
| 2026-05-09 06:45 | 48.97662 | 2.24734 | 5548 ft | 236 kts | 85° |
| 2026-05-09 06:46 | 48.97789 | 2.27233 | 5138 ft | 240 kts | 85° |
| 2026-05-09 06:46 | 48.97912 | 2.29747 | 4686 ft | 236 kts | 85° |
| 2026-05-09 06:46 | 48.98031 | 2.32199 | 4236 ft | 232 kts | 85° |
| 2026-05-09 06:46 | 48.98152 | 2.34651 | 3781 ft | 230 kts | 85° |
| 2026-05-09 06:47 | 48.98273 | 2.37036 | 3323 ft | 228 kts | 85° |
| 2026-05-09 06:47 | 48.98395 | 2.39431 | 2824 ft | 228 kts | 85° |
| 2026-05-09 06:47 | 48.98519 | 2.41845 | 2322 ft | 228 kts | 85° |
| 2026-05-09 06:47 | 48.98642 | 2.44220 | 1915 ft | 223 kts | 85° |
| 2026-05-09 06:48 | 48.98763 | 2.46545 | 1645 ft | 212 kts | 85° |
| 2026-05-09 06:48 | 48.98874 | 2.48684 | 1407 ft | 198 kts | 85° |
| 2026-05-09 06:48 | 48.98978 | 2.50657 | 1149 ft | 183 kts | 85° |
| 2026-05-09 06:48 | 48.99074 | 2.52476 | 880 ft | 167 kts | 85° |
| 2026-05-09 06:49 | 48.99163 | 2.54147 | 647 ft | 149 kts | 85° |
| 2026-05-09 06:49 | 48.99245 | 2.55689 | 454 ft | 143 kts | 85° |
| 2026-05-09 06:49 | 48.99323 | 2.57171 | 332 ft | 134 kts | 85° |
| 2026-05-09 06:49 | 48.99388 | 2.58388 | 322 ft | 82 kts | 85° |
| 2026-05-09 06:50 | 48.99417 | 2.58931 | 322 ft | 39 kts | 85° |
| 2026-05-09 06:50 | 48.99474 | 2.59278 | 320 ft | 21 kts | 65° |
| 2026-05-09 06:50 | 48.99534 | 2.59476 | 321 ft | 16 kts | 65° |
| 2026-05-09 06:50 | 48.99574 | 2.59610 | 321 ft | 13 kts | 65° |
| 2026-05-09 06:51 | 48.99632 | 2.59690 | 320 ft | 6 kts | 7° |
| 2026-05-09 06:51 | 48.99677 | 2.59690 | 321 ft | 5 kts | 354° |
| 2026-05-09 06:51 | 48.99691 | 2.59688 | 321 ft | 0 kts | 355° |
| 2026-05-09 06:52 | 48.99692 | 2.59688 | 321 ft | 0 kts | 355° |
| 2026-05-09 06:52 | 48.99718 | 2.59685 | 321 ft | 6 kts | 355° |
| 2026-05-09 06:52 | 48.99784 | 2.59677 | 323 ft | 12 kts | 355° |
| 2026-05-09 06:53 | 48.99882 | 2.59665 | 324 ft | 15 kts | 354° |
| 2026-05-09 06:53 | 48.99988 | 2.59652 | 324 ft | 16 kts | 355° |
| 2026-05-09 06:53 | 49.00108 | 2.59638 | 326 ft | 18 kts | 355° |
| 2026-05-09 06:53 | 49.00240 | 2.59621 | 327 ft | 20 kts | 354° |
| 2026-05-09 06:54 | 49.00377 | 2.59605 | 328 ft | 19 kts | 355° |
| 2026-05-09 06:54 | 49.00501 | 2.59590 | 330 ft | 17 kts | 355° |
| 2026-05-09 06:54 | 49.00633 | 2.59574 | 330 ft | 19 kts | 355° |
| 2026-05-09 06:54 | 49.00764 | 2.59557 | 332 ft | 17 kts | 354° |
| 2026-05-09 06:55 | 49.00880 | 2.59543 | 334 ft | 16 kts | 355° |
| 2026-05-09 06:55 | 49.00977 | 2.59524 | 333 ft | 12 kts | 333° |
| 2026-05-09 06:55 | 49.01000 | 2.59420 | 334 ft | 11 kts | 264° |
| 2026-05-09 06:55 | 49.00991 | 2.59274 | 333 ft | 16 kts | 265° |
| 2026-05-09 06:56 | 49.00980 | 2.59091 | 334 ft | 17 kts | 258° |
| 2026-05-09 06:56 | 49.00952 | 2.58920 | 335 ft | 15 kts | 261° |
| 2026-05-09 06:56 | 49.00942 | 2.58757 | 336 ft | 15 kts | 265° |
| 2026-05-09 06:56 | 49.00933 | 2.58589 | 335 ft | 17 kts | 265° |
| 2026-05-09 06:57 | 49.00923 | 2.58402 | 335 ft | 17 kts | 265° |
| 2026-05-09 06:57 | 49.00913 | 2.58218 | 336 ft | 16 kts | 265° |
| 2026-05-09 06:57 | 49.00880 | 2.58116 | 337 ft | 11 kts | 194° |
| 2026-05-09 06:57 | 49.00815 | 2.58070 | 336 ft | 11 kts | 257° |
| 2026-05-09 06:58 | 49.00808 | 2.57946 | 336 ft | 12 kts | 265° |
| 2026-05-09 06:58 | 49.00801 | 2.57822 | 336 ft | 5 kts | 264° |
| 2026-05-09 06:58 | 49.00783 | 2.57774 | 336 ft | 6 kts | 192° |
| 2026-05-09 06:58 | 49.00749 | 2.57784 | 335 ft | 4 kts | 163° |
| 2026-05-09 06:59 | 49.00733 | 2.57792 | 335 ft | 1 kts | 162° |